Time;durP1;ratioP1;P1;durP2;ratioP2;P2;SDS_P1;SDS_P2;PMS_P1;PMS_P2;Temp;Humidity;BMP_temperature;BMP_pressure;BME280_temperature;BME280_humidity;BME280_pressure;Samples;Min_cycle;Max_cycle;Signal;HPM_P1;HPM_P2
2022/04/23 00:01:32;;;;;;;8.05;7.10;;;12.00;99.90;;;;;;4967516;28;20089;-69
2022/04/23 00:03:58;;;;;;;8.65;6.50;;;11.90;99.90;;;;;;4965924;28;20049;-69
2022/04/23 00:06:23;;;;;;;12.40;7.47;;;12.00;99.90;;;;;;4967382;28;20155;-68
2022/04/23 00:08:49;;;;;;;8.20;6.97;;;11.80;99.90;;;;;;4967839;28;20440;-69
2022/04/23 00:11:15;;;;;;;10.85;7.47;;;11.80;99.90;;;;;;4966927;28;20126;-69
2022/04/23 00:13:41;;;;;;;9.38;7.63;;;11.80;99.90;;;;;;4964505;28;20674;-69
2022/04/23 00:16:07;;;;;;;8.10;6.65;;;11.80;99.90;;;;;;4965848;28;20063;-69
2022/04/23 00:18:33;;;;;;;10.65;7.40;;;11.80;99.90;;;;;;4965863;28;20055;-69
2022/04/23 00:20:58;;;;;;;11.57;7.13;;;11.70;99.90;;;;;;4967107;28;20125;-69
2022/04/23 00:23:25;;;;;;;9.05;7.40;;;11.70;99.90;;;;;;4968603;28;20416;-68
2022/04/23 00:25:52;;;;;;;9.65;7.15;;;11.70;99.90;;;;;;4969301;28;20042;-68
2022/04/23 00:28:18;;;;;;;9.48;7.07;;;11.70;99.90;;;;;;4965123;28;20047;-68
2022/04/23 00:30:47;;;;;;;9.63;7.70;;;11.60;99.90;;;;;;4966035;28;20046;-69
2022/04/23 00:33:12;;;;;;;9.10;6.63;;;11.60;99.90;;;;;;4968895;28;20042;-69
2022/04/23 00:35:38;;;;;;;8.52;6.97;;;11.50;99.90;;;;;;4966710;28;20042;-69
2022/04/23 00:38:17;;;;;;;12.77;8.10;;;11.40;99.90;;;;;;4967463;28;20046;-69
2022/04/23 00:40:44;;;;;;;9.20;7.40;;;11.30;99.90;;;;;;4967605;28;20378;-69
2022/04/23 00:43:30;;;;;;;8.48;7.05;;;11.40;99.90;;;;;;4965395;28;20040;-69
2022/04/23 00:45:57;;;;;;;10.30;8.05;;;11.30;99.90;;;;;;4969022;28;20039;-68
2022/04/23 00:48:24;;;;;;;11.80;7.95;;;11.20;99.90;;;;;;4965786;28;20045;-68
2022/04/23 00:50:51;;;;;;;10.63;8.40;;;11.20;99.90;;;;;;4967576;28;20121;-69
2022/04/23 00:53:19;;;;;;;12.35;8.80;;;11.20;99.90;;;;;;4967183;28;20085;-68
2022/04/23 00:55:46;;;;;;;9.07;8.02;;;11.20;99.90;;;;;;4962790;28;20047;-68
2022/04/23 00:58:16;;;;;;;10.35;8.85;;;11.10;99.90;;;;;;4954817;28;20516;-68
2022/04/23 01:00:42;;;;;;;12.68;9.05;;;11.10;99.90;;;;;;4981730;28;20043;-68
2022/04/23 01:03:08;;;;;;;12.73;9.05;;;11.00;99.90;;;;;;4968241;28;20085;-68
2022/04/23 01:05:34;;;;;;;13.70;9.77;;;11.10;99.90;;;;;;4966539;28;20039;-68
2022/04/23 01:08:02;;;;;;;12.82;9.43;;;11.10;99.90;;;;;;4966898;28;20047;-68
2022/04/23 01:10:28;;;;;;;17.77;9.18;;;11.10;99.90;;;;;;4966528;28;20049;-68
2022/04/23 01:12:54;;;;;;;10.43;9.32;;;11.10;99.90;;;;;;4965911;28;20046;-69
2022/04/23 01:15:21;;;;;;;10.73;9.23;;;11.00;99.90;;;;;;4966181;28;20053;-69
2022/04/23 01:17:49;;;;;;;11.60;8.95;;;11.00;99.90;;;;;;4967944;28;20039;-69
2022/04/23 01:20:16;;;;;;;9.60;8.13;;;11.00;99.90;;;;;;4982419;28;20488;-69
2022/04/23 01:22:44;;;;;;;14.85;9.27;;;11.00;99.90;;;;;;4964993;28;20099;-68
2022/04/23 01:25:14;;;;;;;9.80;8.57;;;11.10;99.90;;;;;;4962780;28;20113;-68
2022/04/23 01:27:41;;;;;;;10.70;9.07;;;11.00;99.90;;;;;;4965090;28;20495;-68
2022/04/23 01:30:10;;;;;;;9.35;8.35;;;11.00;99.90;;;;;;4966540;28;20142;-68
2022/04/23 01:32:36;;;;;;;10.05;8.65;;;10.90;99.90;;;;;;4980491;28;20045;-69
2022/04/23 01:35:03;;;;;;;9.68;8.23;;;10.90;99.90;;;;;;4983677;28;20046;-69
2022/04/23 01:37:29;;;;;;;8.85;7.75;;;10.90;99.90;;;;;;4967790;28;20534;-69
2022/04/23 01:39:54;;;;;;;9.75;8.75;;;10.90;99.90;;;;;;4979673;28;20210;-69
2022/04/23 01:42:20;;;;;;;9.32;8.43;;;10.80;99.90;;;;;;4965947;28;20039;-69
2022/04/23 01:44:50;;;;;;;10.77;8.38;;;10.90;99.90;;;;;;4966476;28;20145;-68
2022/04/23 01:47:17;;;;;;;10.05;9.07;;;10.80;99.90;;;;;;4965014;28;20043;-68
2022/04/23 01:49:44;;;;;;;9.70;8.70;;;10.80;99.90;;;;;;4964718;28;20105;-68
2022/04/23 01:52:13;;;;;;;11.23;7.97;;;10.80;99.90;;;;;;4980918;28;20055;-69
2022/04/23 01:54:39;;;;;;;9.25;7.03;;;10.70;99.90;;;;;;4965157;28;20577;-69
2022/04/23 01:57:05;;;;;;;11.18;7.80;;;10.60;99.90;;;;;;4967577;28;20736;-69
2022/04/23 01:59:31;;;;;;;9.43;6.88;;;10.60;99.90;;;;;;4966355;28;20046;-69
2022/04/23 02:01:58;;;;;;;8.32;7.28;;;10.50;99.90;;;;;;4967651;28;20078;-69
2022/04/23 02:04:24;;;;;;;11.55;7.47;;;10.50;99.90;;;;;;4982289;28;20567;-69
2022/04/23 02:06:49;;;;;;;9.05;7.40;;;10.40;99.90;;;;;;4965807;28;20043;-69
2022/04/23 02:09:15;;;;;;;11.30;8.27;;;10.40;99.90;;;;;;4969179;28;20053;-69
2022/04/23 02:11:41;;;;;;;8.98;7.22;;;10.30;99.90;;;;;;4966562;28;20130;-68
2022/04/23 02:14:06;;;;;;;11.30;7.13;;;10.30;99.90;;;;;;4982765;28;20051;-68
2022/04/23 02:16:32;;;;;;;10.23;7.38;;;10.30;99.90;;;;;;4967550;28;20109;-68
2022/04/23 02:18:58;;;;;;;8.95;7.45;;;10.30;99.90;;;;;;4965148;28;20035;-68
2022/04/23 02:21:24;;;;;;;14.00;7.60;;;10.30;99.90;;;;;;4966897;28;20495;-68
2022/04/23 02:23:51;;;;;;;8.13;7.07;;;10.40;99.90;;;;;;4982655;28;20034;-68
2022/04/23 02:26:16;;;;;;;9.02;7.15;;;10.30;99.90;;;;;;4980261;28;20054;-68
2022/04/23 02:28:42;;;;;;;10.25;7.82;;;10.30;99.90;;;;;;4965121;28;20050;-68
2022/04/23 02:31:07;;;;;;;9.98;7.38;;;10.20;99.90;;;;;;4965676;28;20461;-68
2022/04/23 02:33:33;;;;;;;8.52;7.47;;;10.20;99.90;;;;;;4970737;28;20061;-68
2022/04/23 02:35:59;;;;;;;10.68;7.75;;;10.30;99.90;;;;;;4981458;28;20043;-68
2022/04/23 02:38:25;;;;;;;10.82;8.40;;;10.20;99.90;;;;;;4967893;28;20050;-68
2022/04/23 02:40:51;;;;;;;13.52;7.57;;;10.20;99.90;;;;;;4984523;28;20042;-68
2022/04/23 02:43:16;;;;;;;10.05;8.15;;;10.20;99.90;;;;;;4969647;28;20047;-68
2022/04/23 02:45:42;;;;;;;10.52;7.93;;;10.20;99.90;;;;;;4970045;28;20508;-68
2022/04/23 02:48:11;;;;;;;11.50;7.72;;;10.20;99.90;;;;;;4968689;28;20504;-68
2022/04/23 02:50:37;;;;;;;10.80;7.78;;;10.10;99.90;;;;;;4968717;28;20075;-68
2022/04/23 02:53:05;;;;;;;8.23;7.43;;;10.10;99.90;;;;;;4969554;28;20078;-68
2022/04/23 02:55:32;;;;;;;9.50;7.63;;;10.10;99.90;;;;;;4963335;28;20101;-68
2022/04/23 02:58:09;;;;;;;10.18;8.60;;;9.90;99.90;;;;;;4968900;28;20083;-68
2022/04/23 03:00:39;;;;;;;8.48;7.40;;;9.90;99.90;;;;;;4968191;28;20512;-68
2022/04/23 03:03:05;;;;;;;9.93;8.32;;;9.90;99.90;;;;;;4948957;28;20173;-68
2022/04/23 03:05:31;;;;;;;12.40;8.63;;;9.90;99.90;;;;;;4982626;28;20050;-68
2022/04/23 03:08:00;;;;;;;10.93;8.10;;;9.90;99.90;;;;;;4969281;28;20194;-68
2022/04/23 03:10:26;;;;;;;8.68;7.68;;;9.90;99.90;;;;;;4966017;28;20047;-68
2022/04/23 03:12:52;;;;;;;10.45;9.00;;;9.90;99.90;;;;;;4969590;28;20043;-68
2022/04/23 03:15:17;;;;;;;9.68;8.20;;;9.80;99.90;;;;;;4965235;28;20528;-68
2022/04/23 03:17:44;;;;;;;9.80;8.40;;;9.80;99.90;;;;;;4970435;28;20455;-68
2022/04/23 03:20:12;;;;;;;10.82;8.13;;;9.70;99.90;;;;;;4966476;28;20031;-68
2022/04/23 03:22:42;;;;;;;11.88;8.73;;;9.70;99.90;;;;;;4985839;28;20050;-68
2022/04/23 03:25:11;;;;;;;14.60;8.27;;;9.70;99.90;;;;;;4966766;28;20066;-68
2022/04/23 03:27:37;;;;;;;9.55;8.20;;;9.70;99.90;;;;;;4967317;28;20088;-68
2022/04/23 03:30:04;;;;;;;9.88;8.52;;;9.70;99.90;;;;;;4967519;28;20039;-68
2022/04/23 03:32:31;;;;;;;9.40;8.38;;;9.70;99.90;;;;;;4969113;28;20134;-68
2022/04/23 03:34:59;;;;;;;11.13;8.50;;;9.70;99.90;;;;;;4967784;28;20385;-68
2022/04/23 03:37:25;;;;;;;11.65;8.13;;;9.70;99.90;;;;;;4964939;28;20077;-68
2022/04/23 03:39:50;;;;;;;10.13;8.18;;;9.60;99.90;;;;;;4968766;28;20062;-68
2022/04/23 03:42:17;;;;;;;12.15;8.73;;;9.60;99.90;;;;;;4969820;28;20039;-68
2022/04/23 03:44:42;;;;;;;10.98;9.15;;;9.60;99.90;;;;;;4967626;28;20035;-68
2022/04/23 03:47:08;;;;;;;10.43;8.18;;;9.60;99.90;;;;;;4969253;28;20463;-68
2022/04/23 03:49:34;;;;;;;9.60;8.60;;;9.60;99.90;;;;;;4968468;28;20043;-68
2022/04/23 03:51:59;;;;;;;12.38;8.25;;;9.60;99.90;;;;;;4968642;28;20504;-68
2022/04/23 03:54:25;;;;;;;10.52;8.35;;;9.60;99.90;;;;;;4981659;28;20043;-68
2022/04/23 03:56:52;;;;;;;9.35;8.40;;;9.50;99.90;;;;;;4967706;28;20046;-68
2022/04/23 03:59:21;;;;;;;11.40;8.70;;;9.50;99.90;;;;;;4965782;28;20538;-68
2022/04/23 04:01:48;;;;;;;10.93;8.15;;;9.40;99.90;;;;;;4967036;28;20043;-68
2022/04/23 04:04:14;;;;;;;10.23;9.15;;;9.40;99.90;;;;;;4968229;28;20121;-68
2022/04/23 04:06:41;;;;;;;14.73;9.35;;;9.40;99.90;;;;;;4966155;28;20513;-68
2022/04/23 04:09:07;;;;;;;10.77;8.15;;;9.30;99.90;;;;;;4967876;28;20049;-68
2022/04/23 04:12:01;;;;;;;9.85;8.38;;;9.30;99.90;;;;;;4969150;28;20043;-68
2022/04/23 04:14:19;;;;;;;12.02;8.10;;;9.30;99.90;;;;;;4968447;28;20050;-68
2022/04/23 04:16:46;;;;;;;12.13;8.95;;;9.30;99.90;;;;;;4966952;28;20043;-68
2022/04/23 04:19:14;;;;;;;9.85;8.55;;;9.30;99.90;;;;;;4985441;28;20055;-67
2022/04/23 04:21:44;;;;;;;13.25;9.20;;;9.30;99.90;;;;;;4969273;28;20042;-68
2022/04/23 04:24:13;;;;;;;10.07;8.80;;;9.30;99.90;;;;;;4965396;28;20050;-68
2022/04/23 04:26:44;;;;;;;11.10;9.05;;;9.20;99.90;;;;;;4967563;28;20086;-68
2022/04/23 04:29:10;;;;;;;9.23;7.93;;;9.30;99.90;;;;;;4969895;28;20473;-68
2022/04/23 04:31:49;;;;;;;10.98;8.40;;;9.20;99.90;;;;;;4964626;28;20088;-68
2022/04/23 04:34:23;;;;;;;9.30;8.27;;;9.20;99.90;;;;;;4966501;28;20050;-68
2022/04/23 04:36:50;;;;;;;12.60;9.23;;;9.30;99.90;;;;;;4982490;28;20053;-68
2022/04/23 04:39:17;;;;;;;11.52;9.02;;;9.30;99.90;;;;;;4965423;28;20101;-68
2022/04/23 04:41:43;;;;;;;11.27;8.82;;;9.30;99.90;;;;;;4964161;28;20441;-68
2022/04/23 04:44:09;;;;;;;10.57;8.15;;;9.20;99.90;;;;;;4968178;28;20568;-68
2022/04/23 04:46:36;;;;;;;17.67;8.18;;;9.30;99.90;;;;;;4966895;28;20137;-68
2022/04/23 04:49:03;;;;;;;11.80;8.27;;;9.50;99.90;;;;;;4982852;28;20043;-68
2022/04/23 04:51:29;;;;;;;9.80;8.02;;;9.60;99.90;;;;;;4965520;28;20050;-68
2022/04/23 04:53:56;;;;;;;10.18;8.00;;;9.70;99.90;;;;;;4964580;28;20125;-68
2022/04/23 04:56:22;;;;;;;8.18;7.38;;;9.90;99.90;;;;;;4967774;28;20049;-68
2022/04/23 04:58:48;;;;;;;8.40;7.43;;;10.20;99.90;;;;;;4965905;28;20517;-68
2022/04/23 05:01:13;;;;;;;10.70;7.22;;;10.40;99.90;;;;;;4967404;28;20034;-68
2022/04/23 05:03:40;;;;;;;9.23;6.68;;;10.70;99.90;;;;;;4946476;28;20042;-68
2022/04/23 05:06:09;;;;;;;7.72;6.05;;;11.00;99.90;;;;;;4967620;28;20408;-68
2022/04/23 05:08:35;;;;;;;8.23;6.53;;;11.30;99.90;;;;;;4966587;28;20399;-68
2022/04/23 05:11:02;;;;;;;7.35;6.65;;;11.70;99.90;;;;;;4967456;28;20509;-68
2022/04/23 05:13:27;;;;;;;6.60;6.07;;;12.10;99.90;;;;;;4966542;28;20445;-68
2022/04/23 05:15:54;;;;;;;8.27;6.60;;;12.50;99.90;;;;;;4963181;28;20051;-68
2022/04/23 05:18:19;;;;;;;8.88;6.00;;;12.90;99.90;;;;;;4965268;28;20039;-68
2022/04/23 05:20:45;;;;;;;7.53;6.15;;;13.20;99.90;;;;;;4964540;28;20397;-68
2022/04/23 05:23:11;;;;;;;6.50;5.65;;;13.50;99.90;;;;;;4964717;28;20034;-68
2022/04/23 05:25:36;;;;;;;6.13;5.20;;;13.80;99.90;;;;;;4965157;28;20129;-68
2022/04/23 05:28:02;;;;;;;6.40;5.85;;;14.10;99.90;;;;;;4968718;28;20075;-68
2022/04/23 05:30:28;;;;;;;6.00;5.40;;;14.50;99.90;;;;;;4961255;28;20081;-68
2022/04/23 05:32:53;;;;;;;5.90;5.10;;;15.00;98.80;;;;;;4966362;28;20073;-68
2022/04/23 05:35:19;;;;;;;5.60;5.05;;;15.10;97.20;;;;;;4967459;28;20046;-68
2022/04/23 05:37:45;;;;;;;6.00;5.47;;;15.10;95.40;;;;;;4967126;28;20493;-68
2022/04/23 05:40:11;;;;;;;5.32;4.82;;;15.20;95.00;;;;;;4967216;28;20053;-68
2022/04/23 05:42:37;;;;;;;6.07;5.28;;;15.40;94.30;;;;;;4963848;28;20054;-68
2022/04/23 05:45:03;;;;;;;5.90;5.30;;;15.40;93.30;;;;;;4969335;28;20039;-67
2022/04/23 05:47:28;;;;;;;5.53;5.03;;;15.50;92.80;;;;;;4967902;28;20041;-68
2022/04/23 05:49:54;;;;;;;6.80;5.20;;;15.80;91.60;;;;;;4982991;28;20050;-68
2022/04/23 05:52:20;;;;;;;5.78;5.25;;;16.00;91.30;;;;;;4965277;28;20066;-68
2022/04/23 05:54:45;;;;;;;5.38;4.90;;;16.20;90.30;;;;;;4968202;28;20027;-68
2022/04/23 05:57:11;;;;;;;6.80;6.10;;;16.50;90.00;;;;;;4968807;28;20461;-68
2022/04/23 05:59:37;;;;;;;6.90;5.65;;;16.50;86.40;;;;;;4967994;28;20398;-68
2022/04/23 06:02:03;;;;;;;5.75;5.20;;;16.90;85.60;;;;;;4968117;28;20094;-68
2022/04/23 06:04:29;;;;;;;6.55;5.43;;;16.60;84.40;;;;;;4968332;28;20066;-68
2022/04/23 06:06:55;;;;;;;6.93;5.35;;;16.80;83.50;;;;;;4962709;28;20432;-68
2022/04/23 06:09:21;;;;;;;6.25;5.20;;;16.90;84.00;;;;;;4971414;28;20097;-67
2022/04/23 06:11:47;;;;;;;5.95;5.45;;;16.70;82.10;;;;;;4972455;28;20081;-68
2022/04/23 06:14:13;;;;;;;7.72;5.60;;;16.90;81.10;;;;;;4969031;28;20086;-68
2022/04/23 06:16:39;;;;;;;6.78;4.65;;;16.80;82.20;;;;;;4973054;28;20035;-68
2022/04/23 06:19:05;;;;;;;6.25;5.65;;;16.40;80.60;;;;;;4967007;28;20047;-68
2022/04/23 06:21:31;;;;;;;6.97;5.82;;;16.30;82.80;;;;;;4969648;28;20054;-68
2022/04/23 06:23:57;;;;;;;6.13;5.63;;;15.80;82.60;;;;;;4968416;28;20047;-68
2022/04/23 06:26:22;;;;;;;6.47;5.82;;;15.00;86.40;;;;;;4966014;28;20092;-68
2022/04/23 06:28:48;;;;;;;6.45;5.80;;;14.70;87.50;;;;;;4971203;28;20039;-68
2022/04/23 06:31:14;;;;;;;6.80;6.10;;;14.70;89.10;;;;;;4969931;28;20121;-67
2022/04/23 06:33:42;;;;;;;7.90;7.05;;;14.60;88.10;;;;;;4968880;28;20053;-68
2022/04/23 06:36:10;;;;;;;7.15;6.55;;;14.30;89.30;;;;;;4971406;28;20506;-68
2022/04/23 06:38:36;;;;;;;7.18;6.40;;;14.00;90.60;;;;;;4968876;28;20065;-67
2022/04/23 06:41:02;;;;;;;7.25;6.00;;;13.70;91.00;;;;;;4968715;28;20905;-68
2022/04/23 06:43:27;;;;;;;7.60;6.78;;;14.00;91.10;;;;;;4966669;28;20110;-68
2022/04/23 06:45:53;;;;;;;10.07;6.68;;;14.00;91.10;;;;;;4971530;28;20043;-68
2022/04/23 06:48:18;;;;;;;7.35;6.13;;;14.10;91.50;;;;;;4968828;28;20106;-68
2022/04/23 06:50:44;;;;;;;7.35;6.65;;;14.10;91.20;;;;;;4969464;28;20046;-68
2022/04/23 06:53:09;;;;;;;7.68;6.80;;;14.00;90.90;;;;;;4968127;28;20039;-67
2022/04/23 06:55:35;;;;;;;7.70;6.85;;;14.00;90.90;;;;;;4970153;28;20073;-68
2022/04/23 06:58:01;;;;;;;7.20;6.60;;;13.90;91.60;;;;;;4987019;28;20054;-68
2022/04/23 07:00:27;;;;;;;7.63;7.00;;;13.80;91.30;;;;;;4969880;28;20058;-68
2022/04/23 07:02:52;;;;;;;8.60;6.80;;;13.80;91.80;;;;;;4965889;28;20042;-68
2022/04/23 07:05:19;;;;;;;9.30;6.55;;;14.00;91.30;;;;;;4970683;28;20038;-68
2022/04/23 07:07:59;;;;;;;8.65;7.10;;;13.90;91.10;;;;;;4969622;28;20160;-68
2022/04/23 07:10:26;;;;;;;8.07;7.28;;;14.00;91.50;;;;;;4968750;28;20047;-68
2022/04/23 07:12:53;;;;;;;10.65;7.55;;;13.90;91.90;;;;;;4967672;28;20049;-68
2022/04/23 07:15:23;;;;;;;8.73;7.82;;;13.70;91.40;;;;;;4970041;28;20604;-67
2022/04/23 07:17:50;;;;;;;9.63;7.15;;;13.80;91.70;;;;;;4969743;28;20069;-68
2022/04/23 07:20:17;;;;;;;8.55;7.65;;;14.00;91.20;;;;;;4955822;28;20564;-67
2022/04/23 07:24:02;;;;;;;8.70;7.68;;;13.90;91.30;;;;;;4973264;28;20045;-67
2022/04/23 07:25:29;;;;;;;10.30;8.38;;;13.90;91.90;;;;;;4969486;28;20097;-68
2022/04/23 07:27:54;;;;;;;9.88;8.85;;;14.20;91.60;;;;;;4986531;28;20091;-67
2022/04/23 07:30:20;;;;;;;9.40;7.80;;;14.10;90.80;;;;;;4971498;28;20070;-67
2022/04/23 07:32:46;;;;;;;10.52;7.68;;;14.00;90.30;;;;;;4967576;28;20035;-68
2022/04/23 07:37:56;;;;;;;8.88;7.40;;;14.20;90.20;;;;;;4967798;28;20059;-67
2022/04/23 07:40:22;;;;;;;7.78;7.03;;;14.20;90.70;;;;;;4967180;28;20054;-68
2022/04/23 07:42:48;;;;;;;8.48;7.28;;;14.30;90.30;;;;;;4968490;28;20117;-67
2022/04/23 07:45:13;;;;;;;8.23;7.43;;;14.30;90.50;;;;;;4967630;28;20045;-67
2022/04/23 07:47:39;;;;;;;7.43;6.72;;;14.40;90.30;;;;;;4984588;28;20055;-67
2022/04/23 07:50:05;;;;;;;8.82;8.02;;;14.50;90.30;;;;;;4969333;28;20058;-67
2022/04/23 07:52:30;;;;;;;8.55;6.50;;;14.40;90.30;;;;;;4984110;28;20039;-67
2022/04/23 07:54:56;;;;;;;8.02;7.05;;;14.60;88.80;;;;;;4968162;28;20401;-67
2022/04/23 07:57:23;;;;;;;8.75;6.38;;;14.60;88.00;;;;;;4968839;28;20078;-67
2022/04/23 07:59:48;;;;;;;8.23;6.80;;;14.60;86.10;;;;;;4967739;28;20382;-67
2022/04/23 08:02:14;;;;;;;12.48;6.22;;;14.70;86.40;;;;;;4985832;28;20050;-67
2022/04/23 08:04:39;;;;;;;5.75;5.20;;;14.60;85.40;;;;;;4984462;28;20051;-67
2022/04/23 08:07:05;;;;;;;11.88;6.70;;;14.50;84.60;;;;;;4969175;28;20101;-67
2022/04/23 08:09:37;;;;;;;9.73;6.90;;;14.60;83.80;;;;;;4968067;28;20125;-67
2022/04/23 08:12:07;;;;;;;6.85;6.15;;;14.50;85.10;;;;;;4967314;28;20043;-67
2022/04/23 08:14:33;;;;;;;7.60;5.90;;;14.60;85.00;;;;;;4966932;28;20051;-67
2022/04/23 08:16:59;;;;;;;8.95;5.78;;;14.90;83.40;;;;;;4966663;28;20050;-68
2022/04/23 08:19:25;;;;;;;7.47;5.75;;;15.00;82.90;;;;;;4967563;28;20074;-67
2022/04/23 08:21:51;;;;;;;8.13;6.07;;;15.00;82.20;;;;;;4968655;28;20050;-67
2022/04/23 08:24:16;;;;;;;7.75;6.53;;;15.10;82.30;;;;;;4954177;28;20601;-67
2022/04/23 08:26:42;;;;;;;7.85;5.68;;;15.00;81.30;;;;;;4966739;28;20449;-68
2022/04/23 08:31:52;;;;;;;14.38;6.97;;;14.90;80.60;;;;;;4963146;28;20074;-68
2022/04/23 08:34:18;;;;;;;6.82;6.22;;;15.10;81.20;;;;;;4973389;28;20134;-67
2022/04/23 08:36:44;;;;;;;6.63;6.03;;;15.20;80.80;;;;;;4966291;28;20043;-67
2022/04/23 08:39:10;;;;;;;10.75;6.70;;;15.30;80.40;;;;;;4960381;28;20377;-67
2022/04/23 08:41:35;;;;;;;5.97;5.47;;;15.10;80.60;;;;;;4961498;28;20050;-67
2022/04/23 08:44:06;;;;;;;8.15;6.53;;;15.10;78.90;;;;;;4967325;28;20083;-67
2022/04/23 08:46:39;;;;;;;9.18;6.18;;;15.30;81.00;;;;;;4966223;28;20076;-67
2022/04/23 08:49:10;;;;;;;6.25;5.63;;;15.40;79.70;;;;;;4968623;28;20049;-67
2022/04/23 08:51:38;;;;;;;8.57;5.95;;;15.40;79.10;;;;;;4982772;28;20050;-67
2022/04/23 08:54:12;;;;;;;7.25;6.38;;;15.40;78.20;;;;;;4969736;28;20050;-67
2022/04/23 08:56:43;;;;;;;15.85;6.32;;;15.50;78.00;;;;;;4966225;28;20501;-67
2022/04/23 08:59:12;;;;;;;12.20;6.35;;;15.50;78.90;;;;;;4952741;28;20045;-67
2022/04/23 09:01:38;;;;;;;10.43;6.18;;;15.50;77.10;;;;;;4964287;28;20500;-67
2022/04/23 09:04:06;;;;;;;9.70;6.93;;;15.60;77.50;;;;;;4981361;28;20050;-67
2022/04/23 09:06:42;;;;;;;7.55;6.55;;;15.70;77.70;;;;;;4967590;28;20389;-67
2022/04/23 09:09:17;;;;;;;12.02;6.45;;;15.90;78.00;;;;;;4967635;28;20045;-67
2022/04/23 09:11:45;;;;;;;9.77;6.22;;;15.90;76.00;;;;;;4966103;28;20038;-67
2022/04/23 09:14:23;;;;;;;27.40;7.15;;;16.10;77.70;;;;;;4968860;28;20034;-67
2022/04/23 09:25:11;;;;;;;10.35;6.05;;;15.80;73.90;;;;;;4964175;28;20050;-67
2022/04/23 09:27:37;;;;;;;11.10;6.57;;;15.90;73.50;;;;;;4981287;28;20206;-67
2022/04/23 09:30:08;;;;;;;6.78;6.13;;;15.70;73.80;;;;;;4966706;28;20039;-67
2022/04/23 09:32:35;;;;;;;7.85;6.20;;;15.80;75.30;;;;;;4965464;28;20137;-67
2022/04/23 09:35:09;;;;;;;10.75;6.65;;;15.80;74.30;;;;;;4962650;28;20069;-67
2022/04/23 09:40:21;;;;;;;11.15;6.65;;;16.10;73.60;;;;;;4964379;28;20046;-67
2022/04/23 09:43:03;;;;;;;8.35;6.25;;;16.00;73.00;;;;;;4965220;28;20078;-68
2022/04/23 09:45:30;;;;;;;9.63;6.45;;;15.90;71.40;;;;;;4971492;28;20088;-67
2022/04/23 09:48:12;;;;;;;28.67;7.15;;;16.10;75.70;;;;;;4971920;28;20131;-67
2022/04/23 09:50:39;;;;;;;8.75;5.50;;;16.20;72.20;;;;;;4973582;28;20042;-67
2022/04/23 09:53:16;;;;;;;8.52;6.85;;;16.20;72.50;;;;;;4972504;28;20378;-67
2022/04/23 09:55:42;;;;;;;7.38;6.05;;;16.20;72.50;;;;;;4971825;28;20045;-67
2022/04/23 09:58:10;;;;;;;11.48;6.40;;;16.20;73.90;;;;;;4971443;28;20046;-67
2022/04/23 10:00:47;;;;;;;8.52;6.63;;;16.20;72.90;;;;;;4986167;28;20043;-67
2022/04/23 10:03:14;;;;;;;7.40;6.70;;;16.20;71.50;;;;;;4989540;28;20038;-67
2022/04/23 10:05:42;;;;;;;8.80;6.38;;;16.30;72.30;;;;;;4971866;28;20054;-67
2022/04/23 10:08:12;;;;;;;6.63;5.88;;;16.30;71.40;;;;;;4971732;28;20039;-67
2022/04/23 10:11:04;;;;;;;8.35;6.32;;;16.30;71.50;;;;;;4970555;28;20121;-67
2022/04/23 10:13:30;;;;;;;7.53;6.80;;;16.40;72.00;;;;;;4971185;28;20058;-67
2022/04/23 10:15:58;;;;;;;11.70;6.30;;;16.40;72.70;;;;;;4972743;28;20051;-67
2022/04/23 10:18:24;;;;;;;14.57;6.55;;;16.40;71.30;;;;;;4971985;28;20082;-67
2022/04/23 10:21:07;;;;;;;13.35;5.63;;;16.70;73.50;;;;;;4973273;28;20486;-67
2022/04/23 10:23:40;;;;;;;21.17;7.15;;;16.80;70.80;;;;;;4973963;28;20776;-67
2022/04/23 10:26:38;;;;;;;8.68;6.07;;;16.80;69.50;;;;;;4974207;28;20043;-67
2022/04/23 10:29:09;;;;;;;6.20;5.60;;;16.70;68.30;;;;;;4967018;28;20049;-67
2022/04/23 10:31:37;;;;;;;12.40;6.03;;;16.80;69.00;;;;;;4972702;28;20346;-67
2022/04/23 10:34:03;;;;;;;10.20;5.47;;;16.70;70.00;;;;;;4975015;28;20038;-67
2022/04/23 10:36:29;;;;;;;9.73;6.57;;;16.70;69.80;;;;;;4972075;28;20074;-67
2022/04/23 10:39:29;;;;;;;14.75;6.20;;;16.70;70.60;;;;;;4971883;28;20505;-67
2022/04/23 10:41:55;;;;;;;6.97;5.82;;;16.80;69.90;;;;;;4961406;28;20493;-67
2022/04/23 10:44:22;;;;;;;13.32;6.68;;;16.90;68.40;;;;;;4971324;28;20123;-67
2022/04/23 10:46:50;;;;;;;60.72;9.23;;;17.00;68.90;;;;;;4961771;28;20150;-67
2022/04/23 10:49:23;;;;;;;12.43;7.05;;;17.10;68.40;;;;;;4956774;28;20082;-67
2022/04/23 10:51:57;;;;;;;9.23;5.63;;;17.30;66.20;;;;;;4972341;28;20124;-67
2022/04/23 10:54:47;;;;;;;14.50;5.75;;;17.60;67.20;;;;;;4936680;28;20398;-67
2022/04/23 10:57:14;;;;;;;5.43;4.90;;;17.50;64.40;;;;;;4963011;28;20065;-67
2022/04/23 10:59:47;;;;;;;5.35;4.85;;;17.50;66.20;;;;;;4984919;28;20066;-67
2022/04/23 11:02:30;;;;;;;20.98;7.10;;;17.50;67.50;;;;;;4969826;28;20503;-67
2022/04/23 11:13:28;;;;;;;6.75;6.10;;;17.30;66.90;;;;;;4969096;28;20050;-67
2022/04/23 11:16:17;;;;;;;6.72;6.03;;;17.30;67.90;;;;;;4965356;28;20807;-67
2022/04/23 11:18:44;;;;;;;10.57;5.68;;;17.30;67.10;;;;;;4967857;28;20538;-67
2022/04/23 11:21:20;;;;;;;8.20;6.28;;;17.30;65.90;;;;;;4966321;28;20039;-67
2022/04/23 11:23:47;;;;;;;5.30;4.80;;;17.10;65.90;;;;;;4970509;28;20043;-67
2022/04/23 11:26:22;;;;;;;11.98;5.85;;;17.00;65.00;;;;;;4967832;28;20038;-67
2022/04/23 11:28:57;;;;;;;6.00;5.40;;;17.00;68.50;;;;;;4970310;28;20573;-67
2022/04/23 11:31:23;;;;;;;;;;;17.00;64.80;;;;;;4968860;28;20043;-67
2022/04/23 11:33:50;;;;;;;18.40;5.55;;;17.00;65.40;;;;;;4967606;28;19965;-67
2022/04/23 11:36:16;;;;;;;6.30;5.70;;;17.20;65.80;;;;;;4968484;28;20624;-67
2022/04/23 11:38:42;;;;;;;9.85;5.53;;;17.30;66.60;;;;;;4969122;28;20480;-67
2022/04/23 11:41:09;;;;;;;12.07;5.80;;;17.30;65.40;;;;;;4966473;28;20042;-67
2022/04/23 11:43:40;;;;;;;11.70;5.28;;;17.40;65.00;;;;;;4965958;28;20042;-67
2022/04/23 11:46:07;;;;;;;6.60;5.50;;;17.50;65.00;;;;;;4969962;28;20106;-67
2022/04/23 11:48:44;;;;;;;5.82;5.25;;;17.60;64.20;;;;;;4967774;28;20051;-67
2022/04/23 11:51:12;;;;;;;6.25;5.75;;;17.50;63.50;;;;;;4982634;28;20050;-67
2022/04/23 11:53:58;;;;;;;10.30;6.38;;;17.50;66.00;;;;;;4980020;28;20056;-67
2022/04/23 11:56:29;;;;;;;22.63;6.97;;;17.60;64.70;;;;;;4967823;28;20046;-67
2022/04/23 11:58:58;;;;;;;102.85;10.65;;;17.50;62.90;;;;;;4967810;28;20046;-67
2022/04/23 12:01:24;;;;;;;9.60;4.93;;;17.70;64.00;;;;;;4969797;28;20117;-67
2022/04/23 12:03:55;;;;;;;5.82;5.32;;;17.80;63.00;;;;;;4969017;28;20039;-67
2022/04/23 12:06:22;;;;;;;17.45;5.30;;;17.70;63.70;;;;;;4967180;28;20393;-67
2022/04/23 12:08:48;;;;;;;7.57;4.82;;;17.70;62.00;;;;;;4968067;28;20050;-67
2022/04/23 12:11:27;;;;;;;6.68;4.63;;;17.70;59.50;;;;;;4965410;28;20034;-67
2022/04/23 12:13:53;;;;;;;7.55;4.07;;;17.80;61.50;;;;;;4967950;28;20055;-67
2022/04/23 12:16:41;;;;;;;7.82;4.43;;;17.90;60.30;;;;;;4969014;28;20053;-67
2022/04/23 12:19:13;;;;;;;7.60;4.80;;;17.90;58.40;;;;;;4968425;28;20042;-67
2022/04/23 12:21:39;;;;;;;5.20;4.75;;;17.70;57.90;;;;;;4969770;28;20078;-67
2022/04/23 12:24:07;;;;;;;7.00;4.75;;;17.50;58.90;;;;;;4966847;28;20058;-67
2022/04/23 12:26:39;;;;;;;5.68;4.47;;;17.40;58.50;;;;;;4966690;28;20039;-67
2022/04/23 12:43:20;;;;;;;4.53;3.87;;;17.70;60.00;;;;;;4964282;28;20138;-67
2022/04/23 12:45:46;;;;;;;6.53;4.05;;;17.70;59.40;;;;;;4968941;28;20046;-67
2022/04/23 12:48:12;;;;;;;13.65;4.20;;;17.60;59.50;;;;;;4966702;28;20038;-67
2022/04/23 12:50:38;;;;;;;4.47;3.92;;;17.80;60.70;;;;;;4967235;28;20078;-67
2022/04/23 12:53:04;;;;;;;6.38;4.05;;;17.70;57.80;;;;;;4944934;28;20761;-68
2022/04/23 12:55:32;;;;;;;7.82;4.28;;;17.70;57.50;;;;;;4962491;28;20074;-67
2022/04/23 12:58:08;;;;;;;6.43;3.47;;;17.70;57.70;;;;;;4966215;28;20123;-67
2022/04/23 13:00:34;;;;;;;;;;;17.80;56.80;;;;;;4962686;28;20073;-68
2022/04/23 13:03:17;;;;;;;5.85;3.03;;;17.90;55.80;;;;;;4979204;28;20017;-67
2022/04/23 13:05:43;;;;;;;3.38;3.08;;;18.00;55.00;;;;;;4965375;28;20042;-66
2022/04/23 13:10:53;;;;;;;6.65;3.30;;;18.00;55.40;;;;;;4965904;28;20159;-67
2022/04/23 13:13:18;;;;;;;4.20;3.20;;;18.00;54.40;;;;;;4962482;28;20125;-67
2022/04/23 13:15:44;;;;;;;8.65;3.90;;;17.90;53.90;;;;;;4966446;28;20379;-67
2022/04/23 13:18:09;;;;;;;5.03;3.00;;;18.00;55.00;;;;;;4977869;28;20663;-67
2022/04/23 13:20:35;;;;;;;3.58;2.90;;;18.00;54.10;;;;;;4966415;28;20035;-67
2022/04/23 13:23:01;;;;;;;7.93;4.05;;;18.10;52.60;;;;;;4968085;28;20037;-67
2022/04/23 13:25:28;;;;;;;8.60;3.60;;;18.10;53.80;;;;;;4963744;28;20046;-67
2022/04/23 13:27:54;;;;;;;5.43;3.30;;;18.00;54.90;;;;;;4963824;28;20047;-66
2022/04/23 13:30:20;;;;;;;3.05;2.85;;;18.20;55.10;;;;;;4967969;28;20030;-67
2022/04/23 13:32:46;;;;;;;6.40;2.60;;;18.20;53.90;;;;;;4963341;28;20116;-67